Pagrindinis puslapis
METAR-TAF:

METAR-TAF

Oro uostai :

Ndžamena, Čadas

platuma: 12-08N, ilguma: 015-02E, Aukštis: 295 m

Dabartinis oras

Ataskaita buvo paskelbta 55 minutes, ne 09:00 UTC
Vėjas 10 kt iš Šiaurės/Šiaurės Rytų, svyruoja nuo Šiaurės/Šiaurės Rytų ir Rytų
Temperatūra 25°C
Drėgmė 18%
Slėgis 1016 hPa
Matomumas: 3500 m
dulkės

METAR: FTTJ 200900Z 02010KT 020V080 3500 DU NSC 25/M01 Q1016 NOSIG

Laikas: 10:55 (09:55 UTC)

Prognozė

Ataskaita buvo paskelbta 4 valandos ir 55 minutes, ne 05:00 UTC
Prognozė galioja nuo 20 metu 06 UTC su 21 metu 12 UTC
Vėjas 10 kt iš Šiaurės Rytų
Matomumas: 2000 m
dulkės
Tapsmas
nuo 20 metu 08 UTC su 20 metu 10 UTC
Matomumas: 6000 m
Laikinai
nuo 20 metu 16 UTC su 20 metu 19 UTC
Matomumas: 4000 m
dulkės

TAF: FTTJ 200500Z 2006/2112 05010KT 2000 DU NSC BECMG 2008/2010 6000 NSW TEMPO 2016/2019 4000 DU

Orai ataskaitas ir orų prognozės (METAR, TAF).

turimą stotys yra geltonos ir raudonos taškus žemėlapyje.

Perkelti pele per norėdami pamatyti stoties vardą.

Tada spustelėkite, norėdami matyti oro stebėjimo ir prognozės.

Norėdami pakeisti žemėlapį: spustelėkite ant žalios mygtukų su juodo kryžiaus žemyn,; žalią mygtuką su brūkšneliu, jei norite nutolinti; arba žalių rodyklių gretimoms žemėlapius.


METAR-TAF: